UTA7775 USRO-USTR
Flight info
| Callsign | UTA7775 |
|---|---|
| Flight time | N/A |
| Altitude | 38000 |
| Route | DINOL2G DINOL T797 NERUG NERUG1L |
| Aircraft | B738/M-SDE2E3FGHIRWXY/LB1 |
Departure
| Time | N/A |
|---|---|
| Airport | Noyabrsk Airport (USRO) |
Arrival
| Time | 2026-04-20 06:37 |
|---|---|
| Airport | Roshchino International Airport (USTR) |
| Time | Latitude | Longitude | Altitude | Speed | Heading |
|---|---|---|---|---|---|
| 2026-04-20 05:20 | 60.92182 | 71.73019 | 30289 ft | 370 kts | 231° |
| 2026-04-20 05:21 | 60.88236 | 71.66286 | 30293 ft | 368 kts | 231° |
| 2026-04-20 05:21 | 60.84298 | 71.59617 | 30297 ft | 366 kts | 231° |
| 2026-04-20 05:22 | 60.80375 | 71.52967 | 30302 ft | 366 kts | 231° |
| 2026-04-20 05:22 | 60.76454 | 71.46311 | 30302 ft | 366 kts | 231° |
| 2026-04-20 05:23 | 60.72532 | 71.39671 | 30298 ft | 367 kts | 231° |
| 2026-04-20 05:23 | 60.68589 | 71.33020 | 30295 ft | 367 kts | 231° |
| 2026-04-20 05:24 | 60.64655 | 71.26413 | 30302 ft | 365 kts | 231° |
| 2026-04-20 05:24 | 60.60740 | 71.19860 | 30253 ft | 363 kts | 232° |
| 2026-04-20 05:25 | 60.56859 | 71.13384 | 30277 ft | 359 kts | 232° |
| 2026-04-20 05:25 | 60.53026 | 71.07002 | 30291 ft | 358 kts | 232° |
| 2026-04-20 05:26 | 60.49168 | 71.00596 | 30278 ft | 358 kts | 232° |
| 2026-04-20 05:26 | 60.45303 | 70.94198 | 30278 ft | 359 kts | 232° |
| 2026-04-20 05:27 | 60.41428 | 70.87806 | 30274 ft | 360 kts | 232° |
| 2026-04-20 05:27 | 60.37540 | 70.81415 | 30206 ft | 360 kts | 232° |
| 2026-04-20 05:28 | 60.33647 | 70.75039 | 30251 ft | 360 kts | 232° |
| 2026-04-20 05:28 | 60.29748 | 70.68672 | 30259 ft | 361 kts | 232° |
| 2026-04-20 05:29 | 60.25831 | 70.62295 | 30238 ft | 361 kts | 232° |
| 2026-04-20 05:29 | 60.21917 | 70.55944 | 30242 ft | 362 kts | 232° |
| 2026-04-20 05:30 | 60.18022 | 70.49644 | 30206 ft | 361 kts | 232° |
| 2026-04-20 05:30 | 60.14094 | 70.43306 | 30229 ft | 363 kts | 232° |
| 2026-04-20 05:31 | 60.10138 | 70.36943 | 30231 ft | 365 kts | 232° |
| 2026-04-20 05:31 | 60.06167 | 70.30581 | 30218 ft | 366 kts | 231° |
| 2026-04-20 05:32 | 60.02856 | 70.25292 | 30209 ft | 367 kts | 231° |
| 2026-04-20 05:32 | 59.98868 | 70.18943 | 30218 ft | 367 kts | 231° |
| 2026-04-20 05:33 | 59.94876 | 70.12604 | 30203 ft | 366 kts | 231° |
| 2026-04-20 05:33 | 59.90885 | 70.06288 | 30201 ft | 366 kts | 231° |
| 2026-04-20 05:34 | 59.86902 | 70.00004 | 30192 ft | 364 kts | 231° |
| 2026-04-20 05:34 | 59.80937 | 69.90625 | 30195 ft | 364 kts | 231° |
| 2026-04-20 05:35 | 59.78953 | 69.87516 | 30080 ft | 363 kts | 231° |
| 2026-04-20 05:35 | 59.76970 | 69.84414 | 30130 ft | 364 kts | 231° |
| 2026-04-20 05:35 | 59.72981 | 69.78182 | 30181 ft | 367 kts | 230° |
| 2026-04-20 05:36 | 59.68950 | 69.71905 | 30193 ft | 371 kts | 230° |
| 2026-04-20 05:36 | 59.64869 | 69.65574 | 30187 ft | 374 kts | 230° |
| 2026-04-20 05:37 | 59.61465 | 69.60310 | 30185 ft | 374 kts | 230° |
| 2026-04-20 05:38 | 59.52464 | 69.46473 | 30158 ft | 371 kts | 230° |
| 2026-04-20 05:39 | 59.44364 | 69.34091 | 30163 ft | 368 kts | 230° |
| 2026-04-20 05:39 | 59.40328 | 69.27925 | 30162 ft | 368 kts | 230° |
| 2026-04-20 05:40 | 59.36276 | 69.21764 | 30159 ft | 369 kts | 230° |
| 2026-04-20 05:40 | 59.32216 | 69.15609 | 30159 ft | 372 kts | 230° |
| 2026-04-20 05:41 | 59.28095 | 69.09388 | 30153 ft | 375 kts | 230° |
| 2026-04-20 05:41 | 59.23952 | 69.03156 | 30146 ft | 376 kts | 230° |
| 2026-04-20 05:42 | 59.19803 | 68.96933 | 30133 ft | 374 kts | 229° |
| 2026-04-20 05:42 | 59.15675 | 68.90760 | 30132 ft | 373 kts | 229° |
| 2026-04-20 05:43 | 59.11932 | 68.84037 | 30140 ft | 363 kts | 236° |
| 2026-04-20 05:43 | 59.08367 | 68.77077 | 30130 ft | 363 kts | 236° |
| 2026-04-20 05:44 | 59.04790 | 68.70128 | 30128 ft | 364 kts | 235° |
| 2026-04-20 05:44 | 59.01191 | 68.63207 | 30124 ft | 365 kts | 235° |
| 2026-04-20 05:45 | 58.97572 | 68.56295 | 30119 ft | 365 kts | 235° |
| 2026-04-20 05:45 | 58.93949 | 68.49406 | 30097 ft | 364 kts | 234° |
| 2026-04-20 05:46 | 58.90342 | 68.42569 | 30115 ft | 366 kts | 234° |
| 2026-04-20 05:46 | 58.86696 | 68.35679 | 30120 ft | 367 kts | 234° |
| 2026-04-20 05:47 | 58.83024 | 68.28763 | 30111 ft | 369 kts | 234° |
| 2026-04-20 05:47 | 58.79341 | 68.21849 | 30099 ft | 369 kts | 234° |
| 2026-04-20 05:48 | 58.75667 | 68.14976 | 30106 ft | 368 kts | 234° |
| 2026-04-20 05:48 | 58.71999 | 68.08135 | 30054 ft | 366 kts | 233° |
| 2026-04-20 05:49 | 58.68373 | 68.01393 | 30087 ft | 364 kts | 233° |
| 2026-04-20 05:49 | 58.64730 | 67.94636 | 30093 ft | 364 kts | 233° |
| 2026-04-20 05:50 | 58.61086 | 67.87896 | 30083 ft | 364 kts | 233° |
| 2026-04-20 05:50 | 58.57435 | 67.81164 | 30084 ft | 364 kts | 233° |
| 2026-04-20 05:51 | 58.53776 | 67.74438 | 30089 ft | 365 kts | 233° |
| 2026-04-20 05:51 | 58.50104 | 67.67711 | 30053 ft | 366 kts | 233° |
| 2026-04-20 05:52 | 58.46418 | 67.60979 | 30061 ft | 366 kts | 233° |
| 2026-04-20 05:52 | 58.42725 | 67.54255 | 30073 ft | 367 kts | 233° |
| 2026-04-20 05:53 | 58.39026 | 67.47541 | 30065 ft | 367 kts | 233° |
| 2026-04-20 05:53 | 58.35354 | 67.40896 | 30063 ft | 366 kts | 233° |
| 2026-04-20 05:54 | 58.31654 | 67.34222 | 30071 ft | 366 kts | 232° |
| 2026-04-20 05:54 | 58.27939 | 67.27549 | 30055 ft | 368 kts | 232° |
| 2026-04-20 05:55 | 58.24223 | 67.20906 | 30049 ft | 366 kts | 232° |
| 2026-04-20 05:55 | 58.20520 | 67.14295 | 30039 ft | 365 kts | 232° |
| 2026-04-20 05:56 | 58.16831 | 67.07717 | 30047 ft | 364 kts | 232° |
| 2026-04-20 05:56 | 58.13137 | 67.01146 | 30044 ft | 364 kts | 232° |
| 2026-04-20 05:57 | 58.09439 | 66.94576 | 30044 ft | 365 kts | 232° |
| 2026-04-20 05:57 | 58.05724 | 66.88028 | 29989 ft | 366 kts | 231° |
| 2026-04-20 05:58 | 58.01998 | 66.81496 | 30025 ft | 366 kts | 231° |
| 2026-04-20 05:58 | 57.98282 | 66.74981 | 30014 ft | 367 kts | 231° |
| 2026-04-20 05:59 | 57.94543 | 66.68389 | 30029 ft | 368 kts | 231° |
| 2026-04-20 05:59 | 57.90841 | 66.61903 | 29982 ft | 354 kts | 230° |
| 2026-04-20 06:00 | 57.89050 | 66.58802 | 29667 ft | 344 kts | 231° |
| 2026-04-20 06:00 | 57.87305 | 66.55777 | 29259 ft | 339 kts | 231° |
| 2026-04-20 06:00 | 57.85607 | 66.52789 | 28913 ft | 332 kts | 231° |
| 2026-04-20 06:00 | 57.83937 | 66.49832 | 28530 ft | 327 kts | 231° |
| 2026-04-20 06:01 | 57.82289 | 66.46926 | 28133 ft | 323 kts | 231° |
| 2026-04-20 06:01 | 57.80662 | 66.44072 | 27741 ft | 319 kts | 231° |
| 2026-04-20 06:01 | 57.79060 | 66.41275 | 27359 ft | 318 kts | 231° |
| 2026-04-20 06:01 | 57.77446 | 66.38468 | 26978 ft | 315 kts | 231° |
| 2026-04-20 06:02 | 57.75832 | 66.35662 | 26611 ft | 321 kts | 231° |
| 2026-04-20 06:02 | 57.74161 | 66.32752 | 26204 ft | 334 kts | 230° |
| 2026-04-20 06:02 | 57.72445 | 66.29783 | 25801 ft | 336 kts | 229° |
| 2026-04-20 06:02 | 57.70736 | 66.26843 | 25403 ft | 332 kts | 229° |
| 2026-04-20 06:03 | 57.69049 | 66.23946 | 25011 ft | 328 kts | 229° |
| 2026-04-20 06:03 | 57.67375 | 66.21072 | 24620 ft | 325 kts | 229° |
| 2026-04-20 06:03 | 57.65727 | 66.18203 | 24096 ft | 325 kts | 230° |
| 2026-04-20 06:03 | 57.64109 | 66.15289 | 23621 ft | 318 kts | 231° |
| 2026-04-20 06:04 | 57.62546 | 66.12457 | 23164 ft | 308 kts | 231° |
| 2026-04-20 06:04 | 57.61052 | 66.09753 | 22776 ft | 299 kts | 231° |
| 2026-04-20 06:04 | 57.59580 | 66.07094 | 22425 ft | 290 kts | 230° |
| 2026-04-20 06:04 | 57.58149 | 66.04509 | 22106 ft | 286 kts | 230° |
| 2026-04-20 06:05 | 57.56702 | 66.01891 | 21773 ft | 297 kts | 230° |
| 2026-04-20 06:05 | 57.55168 | 65.99112 | 21396 ft | 319 kts | 229° |
| 2026-04-20 06:05 | 57.53561 | 65.96229 | 21004 ft | 317 kts | 229° |
| 2026-04-20 06:05 | 57.51991 | 65.93432 | 20630 ft | 310 kts | 229° |
| 2026-04-20 06:06 | 57.50421 | 65.90707 | 20252 ft | 309 kts | 223° |
| 2026-04-20 06:06 | 57.48516 | 65.88771 | 19863 ft | 318 kts | 205° |
| 2026-04-20 06:06 | 57.46311 | 65.87955 | 19452 ft | 324 kts | 194° |
| 2026-04-20 06:06 | 57.44066 | 65.87444 | 19051 ft | 324 kts | 193° |
| 2026-04-20 06:07 | 57.41830 | 65.86981 | 18696 ft | 322 kts | 192° |
| 2026-04-20 06:07 | 57.39622 | 65.86526 | 18480 ft | 315 kts | 192° |
| 2026-04-20 06:07 | 57.37418 | 65.86057 | 17984 ft | 320 kts | 192° |
| 2026-04-20 06:07 | 57.35196 | 65.85573 | 17593 ft | 321 kts | 192° |
| 2026-04-20 06:08 | 57.32997 | 65.85087 | 17236 ft | 324 kts | 192° |
| 2026-04-20 06:08 | 57.30752 | 65.84587 | 16884 ft | 325 kts | 192° |
| 2026-04-20 06:08 | 57.28531 | 65.84094 | 16524 ft | 318 kts | 192° |
| 2026-04-20 06:08 | 57.26347 | 65.83609 | 16176 ft | 315 kts | 192° |
| 2026-04-20 06:09 | 57.24187 | 65.83128 | 15886 ft | 306 kts | 192° |
| 2026-04-20 06:09 | 57.22164 | 65.82686 | 15860 ft | 281 kts | 192° |
| 2026-04-20 06:09 | 57.20300 | 65.82277 | 15707 ft | 259 kts | 193° |
| 2026-04-20 06:09 | 57.18571 | 65.81893 | 15560 ft | 241 kts | 193° |
| 2026-04-20 06:10 | 57.16961 | 65.81532 | 15367 ft | 229 kts | 194° |
| 2026-04-20 06:10 | 57.15381 | 65.81170 | 15073 ft | 227 kts | 193° |
| 2026-04-20 06:10 | 57.14343 | 65.80934 | 14883 ft | 226 kts | 193° |
| 2026-04-20 06:10 | 57.12797 | 65.80587 | 14526 ft | 223 kts | 193° |
| 2026-04-20 06:11 | 57.11258 | 65.80243 | 14094 ft | 222 kts | 193° |
| 2026-04-20 06:11 | 57.09230 | 65.79791 | 13543 ft | 220 kts | 193° |
| 2026-04-20 06:11 | 57.07730 | 65.79445 | 13228 ft | 214 kts | 197° |
| 2026-04-20 06:11 | 57.06813 | 65.78801 | 13013 ft | 206 kts | 221° |
| 2026-04-20 06:12 | 57.05793 | 65.77004 | 12771 ft | 204 kts | 231° |
| 2026-04-20 06:12 | 57.04864 | 65.75059 | 12408 ft | 208 kts | 232° |
| 2026-04-20 06:12 | 57.04013 | 65.72892 | 12033 ft | 204 kts | 250° |
| 2026-04-20 06:12 | 57.03538 | 65.70508 | 11773 ft | 199 kts | 239° |
| 2026-04-20 06:13 | 57.02540 | 65.68741 | 11398 ft | 204 kts | 212° |
| 2026-04-20 06:13 | 57.01142 | 65.68099 | 11078 ft | 210 kts | 192° |
| 2026-04-20 06:13 | 56.99690 | 65.67870 | 10749 ft | 209 kts | 190° |
| 2026-04-20 06:13 | 56.98230 | 65.67802 | 10412 ft | 214 kts | 176° |
| 2026-04-20 06:14 | 56.96866 | 65.69011 | 10065 ft | 228 kts | 142° |
| 2026-04-20 06:14 | 56.96041 | 65.71521 | 9724 ft | 237 kts | 107° |
| 2026-04-20 06:14 | 56.96061 | 65.74539 | 9342 ft | 241 kts | 72° |
| 2026-04-20 06:14 | 56.96930 | 65.77080 | 8988 ft | 235 kts | 37° |
| 2026-04-20 06:15 | 56.98305 | 65.78583 | 8667 ft | 228 kts | 20° |
| 2026-04-20 06:15 | 56.99704 | 65.79781 | 8499 ft | 213 kts | 19° |
| 2026-04-20 06:15 | 57.01023 | 65.80872 | 8251 ft | 206 kts | 18° |
| 2026-04-20 06:15 | 57.02326 | 65.81944 | 7935 ft | 205 kts | 18° |
| 2026-04-20 06:16 | 57.03621 | 65.83008 | 7767 ft | 196 kts | 18° |
| 2026-04-20 06:16 | 57.04887 | 65.83797 | 7449 ft | 191 kts | 353° |
| 2026-04-20 06:16 | 57.06077 | 65.83162 | 7313 ft | 175 kts | 322° |
| 2026-04-20 06:16 | 57.07071 | 65.81954 | 7166 ft | 164 kts | 317° |
| 2026-04-20 06:17 | 57.07977 | 65.80773 | 6916 ft | 155 kts | 316° |
| 2026-04-20 06:17 | 57.08842 | 65.79632 | 6749 ft | 152 kts | 316° |
| 2026-04-20 06:17 | 57.09700 | 65.78499 | 6574 ft | 151 kts | 316° |
| 2026-04-20 06:17 | 57.10556 | 65.77369 | 6409 ft | 152 kts | 316° |
| 2026-04-20 06:18 | 57.11418 | 65.76230 | 6227 ft | 154 kts | 316° |
| 2026-04-20 06:18 | 57.12291 | 65.75078 | 6049 ft | 154 kts | 317° |
| 2026-04-20 06:18 | 57.13164 | 65.73929 | 5843 ft | 155 kts | 317° |
| 2026-04-20 06:18 | 57.14044 | 65.72772 | 5678 ft | 155 kts | 317° |
| 2026-04-20 06:19 | 57.14923 | 65.71616 | 5497 ft | 155 kts | 317° |
| 2026-04-20 06:19 | 57.15803 | 65.70457 | 5315 ft | 155 kts | 317° |
| 2026-04-20 06:19 | 57.16683 | 65.69300 | 5138 ft | 155 kts | 317° |
| 2026-04-20 06:19 | 57.17552 | 65.68157 | 4961 ft | 156 kts | 317° |
| 2026-04-20 06:20 | 57.18433 | 65.66997 | 4769 ft | 155 kts | 317° |
| 2026-04-20 06:20 | 57.19265 | 65.65754 | 4420 ft | 156 kts | 299° |
| 2026-04-20 06:20 | 57.19656 | 65.63965 | 4030 ft | 150 kts | 286° |
| 2026-04-20 06:20 | 57.20026 | 65.62159 | 3642 ft | 151 kts | 287° |
| 2026-04-20 06:21 | 57.20398 | 65.60380 | 3386 ft | 142 kts | 288° |
| 2026-04-20 06:21 | 57.20753 | 65.58719 | 3192 ft | 138 kts | 288° |
| 2026-04-20 06:21 | 57.21109 | 65.57039 | 2801 ft | 143 kts | 288° |
| 2026-04-20 06:21 | 57.21480 | 65.55306 | 2415 ft | 144 kts | 290° |
| 2026-04-20 06:22 | 57.21844 | 65.53633 | 2087 ft | 138 kts | 290° |
| 2026-04-20 06:22 | 57.22207 | 65.51965 | 1663 ft | 145 kts | 291° |
| 2026-04-20 06:22 | 57.22578 | 65.50261 | 1535 ft | 144 kts | 291° |
| 2026-04-20 06:22 | 57.22949 | 65.48560 | 1534 ft | 140 kts | 291° |
| 2026-04-20 06:23 | 57.23313 | 65.46893 | 1501 ft | 138 kts | 291° |
| 2026-04-20 06:23 | 57.23667 | 65.45274 | 1498 ft | 138 kts | 291° |
| 2026-04-20 06:23 | 57.24026 | 65.43627 | 1499 ft | 139 kts | 291° |
| 2026-04-20 06:23 | 57.24387 | 65.41972 | 1502 ft | 139 kts | 291° |
| 2026-04-20 06:24 | 57.24427 | 65.40230 | 1502 ft | 139 kts | 250° |
| 2026-04-20 06:24 | 57.23797 | 65.38910 | 1506 ft | 141 kts | 210° |
| 2026-04-20 06:24 | 57.22912 | 65.38200 | 1513 ft | 143 kts | 202° |
| 2026-04-20 06:24 | 57.21949 | 65.37491 | 1176 ft | 152 kts | 206° |
| 2026-04-20 06:25 | 57.21078 | 65.36478 | 885 ft | 146 kts | 221° |
| 2026-04-20 06:25 | 57.20372 | 65.35175 | 699 ft | 139 kts | 227° |
| 2026-04-20 06:25 | 57.19722 | 65.33823 | 634 ft | 143 kts | 226° |
| 2026-04-20 06:25 | 57.19056 | 65.32456 | 538 ft | 144 kts | 229° |
| 2026-04-20 06:26 | 57.18385 | 65.31098 | 593 ft | 149 kts | 227° |
| 2026-04-20 06:26 | 57.17683 | 65.29736 | 763 ft | 150 kts | 225° |
| 2026-04-20 06:26 | 57.16880 | 65.28503 | 997 ft | 152 kts | 215° |
| 2026-04-20 06:26 | 57.15938 | 65.27654 | 1153 ft | 150 kts | 197° |
| 2026-04-20 06:27 | 57.14905 | 65.27556 | 1321 ft | 151 kts | 171° |
| 2026-04-20 06:27 | 57.13892 | 65.28159 | 1399 ft | 152 kts | 156° |
| 2026-04-20 06:27 | 57.13011 | 65.29251 | 1403 ft | 155 kts | 141° |
| 2026-04-20 06:27 | 57.12240 | 65.30630 | 1366 ft | 153 kts | 133° |
| 2026-04-20 06:28 | 57.11594 | 65.32152 | 1441 ft | 149 kts | 115° |
| 2026-04-20 06:28 | 57.11646 | 65.34021 | 1706 ft | 157 kts | 58° |
| 2026-04-20 06:28 | 57.12573 | 65.34938 | 1598 ft | 152 kts | 360° |
| 2026-04-20 06:28 | 57.13570 | 65.34589 | 1862 ft | 142 kts | 347° |
| 2026-04-20 06:29 | 57.14542 | 65.34407 | 2497 ft | 149 kts | 349° |
| 2026-04-20 06:29 | 57.15638 | 65.34395 | 2717 ft | 162 kts | 0° |
| 2026-04-20 06:29 | 57.16755 | 65.34723 | 2657 ft | 163 kts | 8° |
| 2026-04-20 06:29 | 57.17897 | 65.35233 | 2029 ft | 180 kts | 13° |
| 2026-04-20 06:30 | 57.18968 | 65.35910 | 2153 ft | 148 kts | 19° |
| 2026-04-20 06:30 | 57.19919 | 65.36722 | 2101 ft | 153 kts | 23° |
| 2026-04-20 06:30 | 57.20813 | 65.37808 | 2097 ft | 158 kts | 50° |
| 2026-04-20 06:30 | 57.21385 | 65.39520 | 2119 ft | 161 kts | 57° |
| 2026-04-20 06:31 | 57.21975 | 65.41315 | 2030 ft | 163 kts | 64° |
| 2026-04-20 06:31 | 57.21973 | 65.43293 | 1847 ft | 156 kts | 122° |
| 2026-04-20 06:31 | 57.21121 | 65.44231 | 1722 ft | 147 kts | 182° |
| 2026-04-20 06:31 | 57.20093 | 65.44267 | 1614 ft | 152 kts | 168° |
| 2026-04-20 06:32 | 57.19162 | 65.45127 | 1506 ft | 154 kts | 132° |
| 2026-04-20 06:32 | 57.18547 | 65.46753 | 1511 ft | 156 kts | 125° |
| 2026-04-20 06:32 | 57.17936 | 65.48394 | 1509 ft | 154 kts | 126° |
| 2026-04-20 06:32 | 57.17332 | 65.50026 | 1492 ft | 153 kts | 125° |
| 2026-04-20 06:33 | 57.16723 | 65.51640 | 1498 ft | 154 kts | 127° |
| 2026-04-20 06:33 | 57.15891 | 65.52789 | 1490 ft | 150 kts | 171° |
| 2026-04-20 06:33 | 57.14862 | 65.53069 | 1504 ft | 151 kts | 172° |
| 2026-04-20 06:33 | 57.13824 | 65.53439 | 1503 ft | 152 kts | 171° |
| 2026-04-20 06:34 | 57.12780 | 65.53769 | 1499 ft | 153 kts | 181° |
| 2026-04-20 06:34 | 57.11887 | 65.52938 | 1497 ft | 146 kts | 237° |
| 2026-04-20 06:34 | 57.12008 | 65.49491 | 1503 ft | 141 kts | 286° |
| 2026-04-20 06:35 | 57.12283 | 65.47782 | 1495 ft | 138 kts | 286° |
| 2026-04-20 06:35 | 57.12555 | 65.46099 | 1508 ft | 138 kts | 286° |
| 2026-04-20 06:35 | 57.12909 | 65.44471 | 1482 ft | 137 kts | 309° |
| 2026-04-20 06:35 | 57.13488 | 65.43122 | 1439 ft | 139 kts | 297° |
| 2026-04-20 06:36 | 57.14018 | 65.41600 | 1317 ft | 141 kts | 310° |
| 2026-04-20 06:36 | 57.14706 | 65.40290 | 1046 ft | 140 kts | 313° |
| 2026-04-20 06:36 | 57.15377 | 65.39031 | 855 ft | 134 kts | 318° |
| 2026-04-20 06:36 | 57.16034 | 65.37821 | 734 ft | 134 kts | 316° |
| 2026-04-20 06:37 | 57.16697 | 65.36608 | 603 ft | 134 kts | 317° |
| 2026-04-20 06:37 | 57.17359 | 65.35376 | 459 ft | 136 kts | 313° |
| 2026-04-20 06:37 | 57.18014 | 65.34139 | 395 ft | 125 kts | 315° |
| 2026-04-20 06:37 | 57.18478 | 65.33297 | 376 ft | 32 kts | 314° |
| 2026-04-20 06:38 | 57.18542 | 65.33243 | 375 ft | 7 kts | 18° |
| 2026-04-20 06:38 | 57.18582 | 65.33302 | 373 ft | 8 kts | 46° |
| 2026-04-20 06:38 | 57.18591 | 65.33321 | 373 ft | 0 kts | 47° |
| 2026-04-20 06:42 | 57.58723 | 66.05535 | 21879 ft | 289 kts | 229° |
| 2026-04-20 06:42 | 57.14699 | 65.40303 | 1051 ft | 152 kts | 313° |
| 2026-04-20 06:42 | 57.15279 | 65.39202 | 860 ft | 137 kts | 319° |
| 2026-04-20 06:43 | 57.58288 | 66.04717 | 21497 ft | 282 kts | 231° |
| 2026-04-20 06:43 | 57.13984 | 65.41673 | 1323 ft | 142 kts | 309° |
| 2026-04-20 06:43 | 57.14634 | 65.40430 | 1074 ft | 140 kts | 314° |
| 2026-04-20 06:43 | 57.15202 | 65.39338 | 903 ft | 136 kts | 317° |
| 2026-04-20 06:44 | 57.18591 | 65.33321 | 373 ft | 0 kts | 47° |
| 2026-04-20 06:44 | 57.14013 | 65.53371 | 1506 ft | 152 kts | 171° |
| 2026-04-20 06:44 | 57.13013 | 65.44261 | 1496 ft | 135 kts | 313° |
| 2026-04-20 06:44 | 57.16502 | 65.36978 | 641 ft | 134 kts | 313° |
| 2026-04-20 06:45 | 57.17163 | 65.35752 | 503 ft | 136 kts | 314° |
| 2026-04-20 06:45 | 57.17803 | 65.34524 | 406 ft | 134 kts | 315° |
| 2026-04-20 06:45 | 57.18360 | 65.33524 | 378 ft | 91 kts | 315° |
| 2026-04-20 06:45 | 57.18492 | 65.33270 | 375 ft | 0 kts | 314° |
| 2026-04-20 06:46 | 57.18575 | 65.33116 | 373 ft | 47 kts | 316° |
| 2026-04-20 06:47 | 57.18820 | 65.32713 | 370 ft | 46 kts | 320° |
| 2026-04-20 06:47 | 57.18954 | 65.32456 | 368 ft | 0 kts | 249° |
| 2026-04-20 06:47 | 57.18953 | 65.32455 | 368 ft | 1 kts | 229° |
| 2026-04-20 06:47 | 57.18948 | 65.32453 | 368 ft | 0 kts | 194° |
| 2026-04-20 06:48 | 57.18946 | 65.32455 | 368 ft | 0 kts | 174° |
| 2026-04-20 06:48 | 57.18918 | 65.32487 | 372 ft | 9 kts | 134° |
| 2026-04-20 06:48 | 57.18913 | 65.32497 | 371 ft | 0 kts | 134° |